sensor_id;sensor_type;location;lat;lon;timestamp;temperature;humidity
7972;DHT22;4031;49.758;6.120;2023-05-02T00:00:39;5.30;99.90
7972;DHT22;4031;49.758;6.120;2023-05-02T00:03:05;5.40;99.90
7972;DHT22;4031;49.758;6.120;2023-05-02T00:05:33;5.40;99.90
7972;DHT22;4031;49.758;6.120;2023-05-02T00:07:59;5.30;99.90
7972;DHT22;4031;49.758;6.120;2023-05-02T00:10:24;5.30;99.90
7972;DHT22;4031;49.758;6.120;2023-05-02T00:12:50;5.20;99.90
7972;DHT22;4031;49.758;6.120;2023-05-02T00:15:16;5.10;99.90
7972;DHT22;4031;49.758;6.120;2023-05-02T00:17:41;5.10;99.90
7972;DHT22;4031;49.758;6.120;2023-05-02T00:20:10;5.00;99.90
7972;DHT22;4031;49.758;6.120;2023-05-02T00:22:37;5.00;99.90
7972;DHT22;4031;49.758;6.120;2023-05-02T00:25:03;4.90;99.90
7972;DHT22;4031;49.758;6.120;2023-05-02T00:27:30;4.90;99.90
7972;DHT22;4031;49.758;6.120;2023-05-02T00:29:56;5.00;99.90
7972;DHT22;4031;49.758;6.120;2023-05-02T00:32:23;5.10;99.90
7972;DHT22;4031;49.758;6.120;2023-05-02T00:34:49;5.10;99.90
7972;DHT22;4031;49.758;6.120;2023-05-02T00:37:15;5.10;99.90
7972;DHT22;4031;49.758;6.120;2023-05-02T00:39:40;5.10;99.90
7972;DHT22;4031;49.758;6.120;2023-05-02T00:42:06;5.00;99.90
7972;DHT22;4031;49.758;6.120;2023-05-02T00:44:32;4.80;99.90
7972;DHT22;4031;49.758;6.120;2023-05-02T00:46:58;4.70;99.90
7972;DHT22;4031;49.758;6.120;2023-05-02T00:49:26;4.70;99.90
7972;DHT22;4031;49.758;6.120;2023-05-02T00:51:52;4.60;99.90
7972;DHT22;4031;49.758;6.120;2023-05-02T00:54:19;4.60;99.90
7972;DHT22;4031;49.758;6.120;2023-05-02T00:56:44;4.50;99.90
7972;DHT22;4031;49.758;6.120;2023-05-02T00:59:11;4.50;99.90
7972;DHT22;4031;49.758;6.120;2023-05-02T01:05:09;4.40;99.90
7972;DHT22;4031;49.758;6.120;2023-05-02T01:10:51;4.40;99.90
7972;DHT22;4031;49.758;6.120;2023-05-02T01:13:25;4.40;99.90
7972;DHT22;4031;49.758;6.120;2023-05-02T01:15:55;4.40;99.90
7972;DHT22;4031;49.758;6.120;2023-05-02T01:18:24;4.40;99.90
7972;DHT22;4031;49.758;6.120;2023-05-02T01:21:05;4.40;99.90
7972;DHT22;4031;49.758;6.120;2023-05-02T01:23:59;4.40;99.90
7972;DHT22;4031;49.758;6.120;2023-05-02T01:26:41;4.40;99.90
7972;DHT22;4031;49.758;6.120;2023-05-02T01:29:13;4.30;99.90
7972;DHT22;4031;49.758;6.120;2023-05-02T01:31:47;4.20;99.90
7972;DHT22;4031;49.758;6.120;2023-05-02T01:34:13;4.20;99.90
7972;DHT22;4031;49.758;6.120;2023-05-02T01:36:45;4.10;99.90
7972;DHT22;4031;49.758;6.120;2023-05-02T01:39:14;4.10;99.90
7972;DHT22;4031;49.758;6.120;2023-05-02T01:41:44;4.10;99.90
7972;DHT22;4031;49.758;6.120;2023-05-02T01:44:12;4.30;99.90
7972;DHT22;4031;49.758;6.120;2023-05-02T01:46:40;4.40;99.90
7972;DHT22;4031;49.758;6.120;2023-05-02T01:49:08;4.30;99.90
7972;DHT22;4031;49.758;6.120;2023-05-02T01:51:40;4.30;99.90
7972;DHT22;4031;49.758;6.120;2023-05-02T01:54:09;4.20;99.90
7972;DHT22;4031;49.758;6.120;2023-05-02T01:56:38;4.10;99.90
7972;DHT22;4031;49.758;6.120;2023-05-02T01:59:07;4.00;99.90
7972;DHT22;4031;49.758;6.120;2023-05-02T02:01:36;3.90;99.90
7972;DHT22;4031;49.758;6.120;2023-05-02T02:04:05;4.00;99.90
7972;DHT22;4031;49.758;6.120;2023-05-02T02:06:31;4.00;99.90
7972;DHT22;4031;49.758;6.120;2023-05-02T02:08:57;3.90;99.90
7972;DHT22;4031;49.758;6.120;2023-05-02T02:11:45;4.00;99.90
7972;DHT22;4031;49.758;6.120;2023-05-02T02:14:18;4.00;99.90
7972;DHT22;4031;49.758;6.120;2023-05-02T02:16:46;3.90;99.90
7972;DHT22;4031;49.758;6.120;2023-05-02T02:19:14;3.90;99.90
7972;DHT22;4031;49.758;6.120;2023-05-02T02:21:42;3.90;99.90
7972;DHT22;4031;49.758;6.120;2023-05-02T02:24:08;3.80;99.90
7972;DHT22;4031;49.758;6.120;2023-05-02T02:26:35;3.80;99.90
7972;DHT22;4031;49.758;6.120;2023-05-02T02:29:02;3.80;99.90
7972;DHT22;4031;49.758;6.120;2023-05-02T02:31:32;3.80;99.90
7972;DHT22;4031;49.758;6.120;2023-05-02T02:34:00;3.80;99.90
7972;DHT22;4031;49.758;6.120;2023-05-02T02:42:37;4.20;99.90
7972;DHT22;4031;49.758;6.120;2023-05-02T02:45:15;4.40;99.90
7972;DHT22;4031;49.758;6.120;2023-05-02T02:50:53;4.70;99.90
7972;DHT22;4031;49.758;6.120;2023-05-02T02:53:32;4.90;99.90
7972;DHT22;4031;49.758;6.120;2023-05-02T02:56:05;5.10;99.90
7972;DHT22;4031;49.758;6.120;2023-05-02T02:58:45;5.30;99.90
7972;DHT22;4031;49.758;6.120;2023-05-02T03:01:24;5.40;99.90
7972;DHT22;4031;49.758;6.120;2023-05-02T03:03:52;5.30;99.90
7972;DHT22;4031;49.758;6.120;2023-05-02T03:06:19;5.40;99.90
7972;DHT22;4031;49.758;6.120;2023-05-02T03:08:45;5.40;99.90
7972;DHT22;4031;49.758;6.120;2023-05-02T03:11:11;5.50;99.90
7972;DHT22;4031;49.758;6.120;2023-05-02T03:13:36;5.50;99.90
7972;DHT22;4031;49.758;6.120;2023-05-02T03:18:58;5.60;99.90
7972;DHT22;4031;49.758;6.120;2023-05-02T03:21:23;5.60;99.90
7972;DHT22;4031;49.758;6.120;2023-05-02T03:23:49;5.70;99.90
7972;DHT22;4031;49.758;6.120;2023-05-02T03:26:16;5.70;99.90
7972;DHT22;4031;49.758;6.120;2023-05-02T03:28:41;5.80;99.90
7972;DHT22;4031;49.758;6.120;2023-05-02T03:31:11;5.80;99.90
7972;DHT22;4031;49.758;6.120;2023-05-02T03:33:37;5.80;99.90
7972;DHT22;4031;49.758;6.120;2023-05-02T03:36:03;5.90;99.90
7972;DHT22;4031;49.758;6.120;2023-05-02T03:38:29;5.90;99.90
7972;DHT22;4031;49.758;6.120;2023-05-02T03:40:58;5.90;99.90
7972;DHT22;4031;49.758;6.120;2023-05-02T03:43:24;6.00;99.90
7972;DHT22;4031;49.758;6.120;2023-05-02T03:45:49;6.00;99.90
7972;DHT22;4031;49.758;6.120;2023-05-02T03:48:15;5.90;99.90
7972;DHT22;4031;49.758;6.120;2023-05-02T03:50:41;5.80;99.90
7972;DHT22;4031;49.758;6.120;2023-05-02T03:53:08;5.70;99.90
7972;DHT22;4031;49.758;6.120;2023-05-02T03:55:38;5.70;99.90
7972;DHT22;4031;49.758;6.120;2023-05-02T03:58:05;5.70;99.90
7972;DHT22;4031;49.758;6.120;2023-05-02T04:00:31;5.70;99.90
7972;DHT22;4031;49.758;6.120;2023-05-02T04:02:59;5.70;99.90
7972;DHT22;4031;49.758;6.120;2023-05-02T04:05:25;5.70;99.90
7972;DHT22;4031;49.758;6.120;2023-05-02T04:07:51;5.70;99.90
7972;DHT22;4031;49.758;6.120;2023-05-02T04:10:16;5.70;99.90
7972;DHT22;4031;49.758;6.120;2023-05-02T04:12:43;5.80;99.90
7972;DHT22;4031;49.758;6.120;2023-05-02T04:15:09;5.80;99.90
7972;DHT22;4031;49.758;6.120;2023-05-02T04:17:36;5.80;99.90
7972;DHT22;4031;49.758;6.120;2023-05-02T04:20:02;5.90;99.90
7972;DHT22;4031;49.758;6.120;2023-05-02T04:22:29;5.90;99.90
7972;DHT22;4031;49.758;6.120;2023-05-02T04:24:55;6.00;99.90
7972;DHT22;4031;49.758;6.120;2023-05-02T04:27:21;6.10;99.90
7972;DHT22;4031;49.758;6.120;2023-05-02T04:29:50;6.10;99.90
7972;DHT22;4031;49.758;6.120;2023-05-02T04:32:16;6.10;99.90
7972;DHT22;4031;49.758;6.120;2023-05-02T04:34:42;6.10;99.90
7972;DHT22;4031;49.758;6.120;2023-05-02T04:37:07;6.20;99.90
7972;DHT22;4031;49.758;6.120;2023-05-02T04:39:33;6.20;99.90
7972;DHT22;4031;49.758;6.120;2023-05-02T04:41:59;6.30;99.90
7972;DHT22;4031;49.758;6.120;2023-05-02T04:44:26;6.30;99.90
7972;DHT22;4031;49.758;6.120;2023-05-02T04:46:52;6.50;99.90
7972;DHT22;4031;49.758;6.120;2023-05-02T04:49:17;6.70;99.90
7972;DHT22;4031;49.758;6.120;2023-05-02T04:51:43;6.90;99.90
7972;DHT22;4031;49.758;6.120;2023-05-02T04:54:09;7.10;99.90
7972;DHT22;4031;49.758;6.120;2023-05-02T04:56:36;7.20;99.90
7972;DHT22;4031;49.758;6.120;2023-05-02T04:59:01;7.30;99.90
7972;DHT22;4031;49.758;6.120;2023-05-02T05:01:27;7.40;99.90
7972;DHT22;4031;49.758;6.120;2023-05-02T05:03:53;7.50;99.90
7972;DHT22;4031;49.758;6.120;2023-05-02T05:06:20;7.60;99.90
7972;DHT22;4031;49.758;6.120;2023-05-02T05:08:45;7.80;99.90
7972;DHT22;4031;49.758;6.120;2023-05-02T05:11:11;8.00;99.90
7972;DHT22;4031;49.758;6.120;2023-05-02T05:13:37;8.10;99.90
7972;DHT22;4031;49.758;6.120;2023-05-02T05:16:03;8.30;99.90
7972;DHT22;4031;49.758;6.120;2023-05-02T05:18:29;8.40;99.90
7972;DHT22;4031;49.758;6.120;2023-05-02T05:20:56;8.50;99.90
7972;DHT22;4031;49.758;6.120;2023-05-02T05:23:21;8.60;99.90
7972;DHT22;4031;49.758;6.120;2023-05-02T05:25:47;8.70;99.90
7972;DHT22;4031;49.758;6.120;2023-05-02T05:28:13;8.70;99.90
7972;DHT22;4031;49.758;6.120;2023-05-02T05:30:38;8.60;99.90
7972;DHT22;4031;49.758;6.120;2023-05-02T05:33:04;8.60;99.90
7972;DHT22;4031;49.758;6.120;2023-05-02T05:35:30;8.60;99.90
7972;DHT22;4031;49.758;6.120;2023-05-02T05:37:57;8.70;99.90
7972;DHT22;4031;49.758;6.120;2023-05-02T05:40:22;8.80;99.90
7972;DHT22;4031;49.758;6.120;2023-05-02T05:42:48;9.00;99.90
7972;DHT22;4031;49.758;6.120;2023-05-02T05:45:14;9.10;99.90
7972;DHT22;4031;49.758;6.120;2023-05-02T05:47:41;9.30;99.90
7972;DHT22;4031;49.758;6.120;2023-05-02T05:50:07;9.40;99.90
7972;DHT22;4031;49.758;6.120;2023-05-02T05:52:33;9.60;99.90
7972;DHT22;4031;49.758;6.120;2023-05-02T05:54:59;9.70;99.90
7972;DHT22;4031;49.758;6.120;2023-05-02T05:57:25;9.90;99.90
7972;DHT22;4031;49.758;6.120;2023-05-02T05:59:51;9.90;99.90
7972;DHT22;4031;49.758;6.120;2023-05-02T06:02:17;10.00;99.90
7972;DHT22;4031;49.758;6.120;2023-05-02T06:04:43;10.00;99.90
7972;DHT22;4031;49.758;6.120;2023-05-02T06:07:10;10.00;99.90
7972;DHT22;4031;49.758;6.120;2023-05-02T06:09:36;10.10;99.90
7972;DHT22;4031;49.758;6.120;2023-05-02T06:12:02;10.20;99.90
7972;DHT22;4031;49.758;6.120;2023-05-02T06:14:28;10.20;99.90
7972;DHT22;4031;49.758;6.120;2023-05-02T06:16:53;10.30;99.90
7972;DHT22;4031;49.758;6.120;2023-05-02T06:19:19;10.40;99.90
7972;DHT22;4031;49.758;6.120;2023-05-02T06:21:45;10.60;99.90
7972;DHT22;4031;49.758;6.120;2023-05-02T06:24:10;10.80;99.90
7972;DHT22;4031;49.758;6.120;2023-05-02T06:26:36;11.10;99.90
7972;DHT22;4031;49.758;6.120;2023-05-02T06:29:02;11.50;99.90
7972;DHT22;4031;49.758;6.120;2023-05-02T06:31:28;12.40;99.90
7972;DHT22;4031;49.758;6.120;2023-05-02T06:33:53;13.70;99.90
7972;DHT22;4031;49.758;6.120;2023-05-02T06:36:19;15.00;99.90
7972;DHT22;4031;49.758;6.120;2023-05-02T06:38:46;15.40;99.90
7972;DHT22;4031;49.758;6.120;2023-05-02T06:41:12;15.60;99.90
7972;DHT22;4031;49.758;6.120;2023-05-02T06:43:41;15.80;99.90
7972;DHT22;4031;49.758;6.120;2023-05-02T06:46:07;15.80;99.90
7972;DHT22;4031;49.758;6.120;2023-05-02T06:48:36;15.60;99.90
7972;DHT22;4031;49.758;6.120;2023-05-02T06:51:02;15.60;99.90
7972;DHT22;4031;49.758;6.120;2023-05-02T06:53:29;16.40;99.90
7972;DHT22;4031;49.758;6.120;2023-05-02T06:55:55;16.90;99.90
7972;DHT22;4031;49.758;6.120;2023-05-02T06:58:21;16.90;99.90
7972;DHT22;4031;49.758;6.120;2023-05-02T07:00:47;16.20;99.90
7972;DHT22;4031;49.758;6.120;2023-05-02T07:03:13;15.40;99.90
7972;DHT22;4031;49.758;6.120;2023-05-02T07:05:39;14.90;99.90
7972;DHT22;4031;49.758;6.120;2023-05-02T07:08:05;14.30;99.90
7972;DHT22;4031;49.758;6.120;2023-05-02T07:10:31;13.90;99.90
7972;DHT22;4031;49.758;6.120;2023-05-02T07:12:57;13.50;99.90
7972;DHT22;4031;49.758;6.120;2023-05-02T07:15:23;13.00;99.90
7972;DHT22;4031;49.758;6.120;2023-05-02T07:17:48;12.70;99.90
7972;DHT22;4031;49.758;6.120;2023-05-02T07:20:14;12.70;99.90
7972;DHT22;4031;49.758;6.120;2023-05-02T07:22:41;13.00;99.90
7972;DHT22;4031;49.758;6.120;2023-05-02T07:25:07;13.20;99.90
7972;DHT22;4031;49.758;6.120;2023-05-02T07:27:34;13.20;99.90
7972;DHT22;4031;49.758;6.120;2023-05-02T07:30:00;13.10;99.90
7972;DHT22;4031;49.758;6.120;2023-05-02T07:32:26;13.00;99.90
7972;DHT22;4031;49.758;6.120;2023-05-02T07:34:52;13.00;99.90
7972;DHT22;4031;49.758;6.120;2023-05-02T07:37:21;12.80;99.90
7972;DHT22;4031;49.758;6.120;2023-05-02T07:39:47;12.70;99.90
7972;DHT22;4031;49.758;6.120;2023-05-02T07:42:13;12.70;99.90
7972;DHT22;4031;49.758;6.120;2023-05-02T07:44:38;12.70;99.90
7972;DHT22;4031;49.758;6.120;2023-05-02T07:47:04;12.70;99.90
7972;DHT22;4031;49.758;6.120;2023-05-02T07:49:30;12.70;99.90
7972;DHT22;4031;49.758;6.120;2023-05-02T07:51:56;12.80;99.90
7972;DHT22;4031;49.758;6.120;2023-05-02T07:54:22;13.20;99.90
7972;DHT22;4031;49.758;6.120;2023-05-02T07:56:50;13.60;99.90
7972;DHT22;4031;49.758;6.120;2023-05-02T07:59:16;14.20;99.90
7972;DHT22;4031;49.758;6.120;2023-05-02T08:01:42;14.80;99.90
7972;DHT22;4031;49.758;6.120;2023-05-02T08:04:08;15.40;99.90
7972;DHT22;4031;49.758;6.120;2023-05-02T08:06:35;15.60;99.90
7972;DHT22;4031;49.758;6.120;2023-05-02T08:09:01;15.70;99.90
7972;DHT22;4031;49.758;6.120;2023-05-02T08:11:27;15.80;99.90
7972;DHT22;4031;49.758;6.120;2023-05-02T08:13:53;15.70;99.90
7972;DHT22;4031;49.758;6.120;2023-05-02T08:16:19;15.60;99.90
7972;DHT22;4031;49.758;6.120;2023-05-02T08:18:45;15.30;99.90
7972;DHT22;4031;49.758;6.120;2023-05-02T08:21:11;15.30;99.90
7972;DHT22;4031;49.758;6.120;2023-05-02T08:23:37;15.20;99.90
7972;DHT22;4031;49.758;6.120;2023-05-02T08:26:04;15.00;99.90
7972;DHT22;4031;49.758;6.120;2023-05-02T08:28:30;15.00;99.90
7972;DHT22;4031;49.758;6.120;2023-05-02T08:30:56;14.90;99.90
7972;DHT22;4031;49.758;6.120;2023-05-02T08:33:22;15.10;99.90
7972;DHT22;4031;49.758;6.120;2023-05-02T08:35:48;16.40;99.90
7972;DHT22;4031;49.758;6.120;2023-05-02T08:38:14;17.00;99.90
7972;DHT22;4031;49.758;6.120;2023-05-02T08:40:40;18.00;99.90
7972;DHT22;4031;49.758;6.120;2023-05-02T08:43:05;18.00;99.90
7972;DHT22;4031;49.758;6.120;2023-05-02T08:45:36;17.50;99.90
7972;DHT22;4031;49.758;6.120;2023-05-02T08:48:06;17.30;99.90
7972;DHT22;4031;49.758;6.120;2023-05-02T08:50:44;17.30;99.90
7972;DHT22;4031;49.758;6.120;2023-05-02T08:53:13;17.00;99.90
7972;DHT22;4031;49.758;6.120;2023-05-02T08:55:40;16.80;99.90
7972;DHT22;4031;49.758;6.120;2023-05-02T08:58:07;17.20;99.90
7972;DHT22;4031;49.758;6.120;2023-05-02T09:00:38;17.40;99.90
7972;DHT22;4031;49.758;6.120;2023-05-02T09:03:20;19.00;99.90
7972;DHT22;4031;49.758;6.120;2023-05-02T09:06:07;20.40;99.90
7972;DHT22;4031;49.758;6.120;2023-05-02T09:08:42;21.70;99.90
7972;DHT22;4031;49.758;6.120;2023-05-02T09:11:10;22.90;99.90
7972;DHT22;4031;49.758;6.120;2023-05-02T09:13:37;23.20;99.90
7972;DHT22;4031;49.758;6.120;2023-05-02T09:16:04;22.50;99.90
7972;DHT22;4031;49.758;6.120;2023-05-02T09:18:37;21.40;99.90
7972;DHT22;4031;49.758;6.120;2023-05-02T09:21:18;20.50;99.90
7972;DHT22;4031;49.758;6.120;2023-05-02T09:23:57;19.20;99.90
7972;DHT22;4031;49.758;6.120;2023-05-02T09:26:29;18.30;99.90
7972;DHT22;4031;49.758;6.120;2023-05-02T09:29:01;17.90;99.90
7972;DHT22;4031;49.758;6.120;2023-05-02T09:31:30;17.40;99.90
7972;DHT22;4031;49.758;6.120;2023-05-02T09:34:10;17.00;99.90
7972;DHT22;4031;49.758;6.120;2023-05-02T09:36:44;16.90;99.90
7972;DHT22;4031;49.758;6.120;2023-05-02T09:41:40;17.10;99.90
7972;DHT22;4031;49.758;6.120;2023-05-02T09:44:11;17.60;99.90
7972;DHT22;4031;49.758;6.120;2023-05-02T09:46:42;17.90;99.90
7972;DHT22;4031;49.758;6.120;2023-05-02T09:49:15;17.90;99.90
7972;DHT22;4031;49.758;6.120;2023-05-02T09:51:48;17.90;99.90
7972;DHT22;4031;49.758;6.120;2023-05-02T09:54:34;17.80;99.90
7972;DHT22;4031;49.758;6.120;2023-05-02T09:57:00;18.20;99.90
7972;DHT22;4031;49.758;6.120;2023-05-02T09:59:26;18.70;99.90
7972;DHT22;4031;49.758;6.120;2023-05-02T10:01:56;20.00;99.90
7972;DHT22;4031;49.758;6.120;2023-05-02T10:04:23;21.50;99.90
7972;DHT22;4031;49.758;6.120;2023-05-02T10:06:51;21.70;99.90
7972;DHT22;4031;49.758;6.120;2023-05-02T10:09:19;21.30;99.90
7972;DHT22;4031;49.758;6.120;2023-05-02T10:11:46;20.40;99.90
7972;DHT22;4031;49.758;6.120;2023-05-02T10:14:18;20.40;99.90
7972;DHT22;4031;49.758;6.120;2023-05-02T10:17:04;20.00;99.90
7972;DHT22;4031;49.758;6.120;2023-05-02T10:22:35;20.90;99.90
7972;DHT22;4031;49.758;6.120;2023-05-02T10:25:02;22.40;99.90
7972;DHT22;4031;49.758;6.120;2023-05-02T10:27:29;24.10;99.90
7972;DHT22;4031;49.758;6.120;2023-05-02T10:29:58;25.00;99.90
7972;DHT22;4031;49.758;6.120;2023-05-02T10:32:27;24.90;99.90
7972;DHT22;4031;49.758;6.120;2023-05-02T10:34:55;24.70;99.90
7972;DHT22;4031;49.758;6.120;2023-05-02T10:37:23;24.50;99.90
7972;DHT22;4031;49.758;6.120;2023-05-02T10:39:50;25.00;99.90
7972;DHT22;4031;49.758;6.120;2023-05-02T10:42:16;25.10;99.90
7972;DHT22;4031;49.758;6.120;2023-05-02T10:44:43;23.60;99.90
7972;DHT22;4031;49.758;6.120;2023-05-02T10:47:25;22.30;99.90
7972;DHT22;4031;49.758;6.120;2023-05-02T10:49:52;20.60;99.90
7972;DHT22;4031;49.758;6.120;2023-05-02T10:52:37;19.40;99.90
7972;DHT22;4031;49.758;6.120;2023-05-02T10:55:21;20.40;99.90
7972;DHT22;4031;49.758;6.120;2023-05-02T11:00:28;21.80;99.90
7972;DHT22;4031;49.758;6.120;2023-05-02T11:02:58;22.10;99.90
7972;DHT22;4031;49.758;6.120;2023-05-02T11:05:25;22.50;99.90
7972;DHT22;4031;49.758;6.120;2023-05-02T11:10:54;23.00;99.90
7972;DHT22;4031;49.758;6.120;2023-05-02T11:13:49;23.80;99.90
7972;DHT22;4031;49.758;6.120;2023-05-02T11:16:15;24.50;99.90
7972;DHT22;4031;49.758;6.120;2023-05-02T11:19:08;24.80;99.90
7972;DHT22;4031;49.758;6.120;2023-05-02T11:21:33;24.10;99.90
7972;DHT22;4031;49.758;6.120;2023-05-02T11:24:38;23.10;99.90
7972;DHT22;4031;49.758;6.120;2023-05-02T11:30:05;19.70;99.90
7972;DHT22;4031;49.758;6.120;2023-05-02T11:35:23;20.30;99.90
7972;DHT22;4031;49.758;6.120;2023-05-02T11:37:57;21.10;99.90
7972;DHT22;4031;49.758;6.120;2023-05-02T11:40:25;22.20;99.90
7972;DHT22;4031;49.758;6.120;2023-05-02T11:42:51;23.00;99.90
7972;DHT22;4031;49.758;6.120;2023-05-02T11:45:17;23.40;99.90
7972;DHT22;4031;49.758;6.120;2023-05-02T11:47:46;23.50;99.90
7972;DHT22;4031;49.758;6.120;2023-05-02T11:50:13;24.10;99.90
7972;DHT22;4031;49.758;6.120;2023-05-02T11:52:41;24.00;99.80
7972;DHT22;4031;49.758;6.120;2023-05-02T11:55:10;23.50;99.90
7972;DHT22;4031;49.758;6.120;2023-05-02T11:57:37;23.10;99.90
7972;DHT22;4031;49.758;6.120;2023-05-02T12:00:04;23.90;99.90
7972;DHT22;4031;49.758;6.120;2023-05-02T12:02:41;24.30;99.90
7972;DHT22;4031;49.758;6.120;2023-05-02T12:05:09;23.60;99.90
7972;DHT22;4031;49.758;6.120;2023-05-02T12:07:44;22.20;98.20
7972;DHT22;4031;49.758;6.120;2023-05-02T12:10:12;20.90;98.10
7972;DHT22;4031;49.758;6.120;2023-05-02T12:12:39;20.40;99.90
7972;DHT22;4031;49.758;6.120;2023-05-02T12:15:07;19.70;99.90
7972;DHT22;4031;49.758;6.120;2023-05-02T12:17:47;19.00;99.90
7972;DHT22;4031;49.758;6.120;2023-05-02T12:20:16;18.90;99.90
7972;DHT22;4031;49.758;6.120;2023-05-02T12:22:42;18.60;99.90
7972;DHT22;4031;49.758;6.120;2023-05-02T12:25:08;18.40;99.90
7972;DHT22;4031;49.758;6.120;2023-05-02T12:27:34;18.40;99.90
7972;DHT22;4031;49.758;6.120;2023-05-02T12:30:02;18.40;99.90
7972;DHT22;4031;49.758;6.120;2023-05-02T12:32:30;18.80;99.90
7972;DHT22;4031;49.758;6.120;2023-05-02T12:35:01;19.90;99.90
7972;DHT22;4031;49.758;6.120;2023-05-02T12:37:28;21.30;99.90
7972;DHT22;4031;49.758;6.120;2023-05-02T12:39:54;22.50;99.90
7972;DHT22;4031;49.758;6.120;2023-05-02T12:42:22;23.20;99.90
7972;DHT22;4031;49.758;6.120;2023-05-02T12:44:50;23.20;99.90
7972;DHT22;4031;49.758;6.120;2023-05-02T12:47:18;22.00;99.90
7972;DHT22;4031;49.758;6.120;2023-05-02T12:49:54;20.70;98.30
7972;DHT22;4031;49.758;6.120;2023-05-02T12:52:45;19.50;98.00
7972;DHT22;4031;49.758;6.120;2023-05-02T12:55:23;18.80;97.80
7972;DHT22;4031;49.758;6.120;2023-05-02T12:57:50;18.50;98.60
7972;DHT22;4031;49.758;6.120;2023-05-02T13:00:24;18.40;99.10
7972;DHT22;4031;49.758;6.120;2023-05-02T13:02:50;18.60;98.80
7972;DHT22;4031;49.758;6.120;2023-05-02T13:05:19;19.20;99.90
7972;DHT22;4031;49.758;6.120;2023-05-02T13:07:45;19.70;99.90
7972;DHT22;4031;49.758;6.120;2023-05-02T13:10:11;19.30;99.90
7972;DHT22;4031;49.758;6.120;2023-05-02T13:12:38;19.50;99.90
7972;DHT22;4031;49.758;6.120;2023-05-02T13:15:05;20.90;99.90
7972;DHT22;4031;49.758;6.120;2023-05-02T13:17:32;21.60;99.90
7972;DHT22;4031;49.758;6.120;2023-05-02T13:19:58;21.80;99.90
7972;DHT22;4031;49.758;6.120;2023-05-02T13:22:24;22.40;99.70
7972;DHT22;4031;49.758;6.120;2023-05-02T13:24:51;21.70;99.00
7972;DHT22;4031;49.758;6.120;2023-05-02T13:27:17;21.60;95.80
7972;DHT22;4031;49.758;6.120;2023-05-02T13:29:47;21.70;95.20
7972;DHT22;4031;49.758;6.120;2023-05-02T13:32:13;21.90;97.00
7972;DHT22;4031;49.758;6.120;2023-05-02T13:34:39;21.80;92.90
7972;DHT22;4031;49.758;6.120;2023-05-02T13:37:05;22.50;96.10
7972;DHT22;4031;49.758;6.120;2023-05-02T13:39:30;22.90;97.80
7972;DHT22;4031;49.758;6.120;2023-05-02T13:41:56;22.90;92.40
7972;DHT22;4031;49.758;6.120;2023-05-02T13:44:22;23.10;92.20
7972;DHT22;4031;49.758;6.120;2023-05-02T13:46:47;23.10;92.70
7972;DHT22;4031;49.758;6.120;2023-05-02T13:49:13;23.00;93.00
7972;DHT22;4031;49.758;6.120;2023-05-02T13:51:39;23.70;93.80
7972;DHT22;4031;49.758;6.120;2023-05-02T13:54:05;23.90;93.90
7972;DHT22;4031;49.758;6.120;2023-05-02T13:56:31;24.30;91.70
7972;DHT22;4031;49.758;6.120;2023-05-02T13:58:57;24.10;90.50
7972;DHT22;4031;49.758;6.120;2023-05-02T14:01:22;23.20;91.30
7972;DHT22;4031;49.758;6.120;2023-05-02T14:03:50;22.90;92.80
7972;DHT22;4031;49.758;6.120;2023-05-02T14:06:16;22.10;93.50
7972;DHT22;4031;49.758;6.120;2023-05-02T14:08:42;21.60;92.30
7972;DHT22;4031;49.758;6.120;2023-05-02T14:11:09;20.70;92.90
7972;DHT22;4031;49.758;6.120;2023-05-02T14:13:35;19.60;93.00
7972;DHT22;4031;49.758;6.120;2023-05-02T14:16:01;18.70;91.70
7972;DHT22;4031;49.758;6.120;2023-05-02T14:18:27;18.10;94.10
7972;DHT22;4031;49.758;6.120;2023-05-02T14:20:53;17.60;94.50
7972;DHT22;4031;49.758;6.120;2023-05-02T14:23:19;17.90;94.90
7972;DHT22;4031;49.758;6.120;2023-05-02T14:25:45;18.60;93.50
7972;DHT22;4031;49.758;6.120;2023-05-02T14:28:11;18.40;93.70
7972;DHT22;4031;49.758;6.120;2023-05-02T14:30:36;17.90;95.50
7972;DHT22;4031;49.758;6.120;2023-05-02T14:33:02;18.20;99.20
7972;DHT22;4031;49.758;6.120;2023-05-02T14:35:28;19.00;99.70
7972;DHT22;4031;49.758;6.120;2023-05-02T14:37:53;19.60;98.10
7972;DHT22;4031;49.758;6.120;2023-05-02T14:40:19;19.90;96.60
7972;DHT22;4031;49.758;6.120;2023-05-02T14:42:45;20.40;99.20
7972;DHT22;4031;49.758;6.120;2023-05-02T14:45:11;20.80;96.00
7972;DHT22;4031;49.758;6.120;2023-05-02T14:47:37;21.20;97.50
7972;DHT22;4031;49.758;6.120;2023-05-02T14:50:03;21.20;95.00
7972;DHT22;4031;49.758;6.120;2023-05-02T14:52:29;21.50;97.10
7972;DHT22;4031;49.758;6.120;2023-05-02T14:54:58;21.80;93.80
7972;DHT22;4031;49.758;6.120;2023-05-02T14:57:24;21.60;91.40
7972;DHT22;4031;49.758;6.120;2023-05-02T14:59:50;21.40;91.00
7972;DHT22;4031;49.758;6.120;2023-05-02T15:02:16;21.50;92.40
7972;DHT22;4031;49.758;6.120;2023-05-02T15:04:42;21.30;90.40
7972;DHT22;4031;49.758;6.120;2023-05-02T15:07:07;21.10;91.70
7972;DHT22;4031;49.758;6.120;2023-05-02T15:09:33;21.00;90.40
7972;DHT22;4031;49.758;6.120;2023-05-02T15:11:59;21.40;91.80
7972;DHT22;4031;49.758;6.120;2023-05-02T15:14:27;21.70;92.80
7972;DHT22;4031;49.758;6.120;2023-05-02T15:16:53;21.80;91.50
7972;DHT22;4031;49.758;6.120;2023-05-02T15:19:19;21.80;91.70
7972;DHT22;4031;49.758;6.120;2023-05-02T15:21:47;21.80;90.60
7972;DHT22;4031;49.758;6.120;2023-05-02T15:24:14;21.20;90.50
7972;DHT22;4031;49.758;6.120;2023-05-02T15:26:40;20.60;89.20
7972;DHT22;4031;49.758;6.120;2023-05-02T15:29:06;20.20;90.20
7972;DHT22;4031;49.758;6.120;2023-05-02T15:31:32;20.00;91.20
7972;DHT22;4031;49.758;6.120;2023-05-02T15:33:58;20.10;90.50
7972;DHT22;4031;49.758;6.120;2023-05-02T15:36:28;20.10;91.40
7972;DHT22;4031;49.758;6.120;2023-05-02T15:38:55;20.00;92.00
7972;DHT22;4031;49.758;6.120;2023-05-02T15:41:21;19.60;90.90
7972;DHT22;4031;49.758;6.120;2023-05-02T15:43:49;19.40;92.30
7972;DHT22;4031;49.758;6.120;2023-05-02T15:46:15;19.10;92.60
7972;DHT22;4031;49.758;6.120;2023-05-02T15:48:40;18.90;92.50
7972;DHT22;4031;49.758;6.120;2023-05-02T15:51:06;19.00;91.80
7972;DHT22;4031;49.758;6.120;2023-05-02T15:53:35;19.00;93.10
7972;DHT22;4031;49.758;6.120;2023-05-02T15:56:07;18.80;92.00
7972;DHT22;4031;49.758;6.120;2023-05-02T15:58:33;18.70;92.60
7972;DHT22;4031;49.758;6.120;2023-05-02T16:00:59;18.40;92.40
7972;DHT22;4031;49.758;6.120;2023-05-02T16:03:26;17.90;92.50
7972;DHT22;4031;49.758;6.120;2023-05-02T16:05:52;17.60;93.50
7972;DHT22;4031;49.758;6.120;2023-05-02T16:08:19;17.20;94.10
7972;DHT22;4031;49.758;6.120;2023-05-02T16:10:45;17.00;95.30
7972;DHT22;4031;49.758;6.120;2023-05-02T16:13:11;16.90;96.10
7972;DHT22;4031;49.758;6.120;2023-05-02T16:15:37;16.90;96.30
7972;DHT22;4031;49.758;6.120;2023-05-02T16:18:03;16.90;98.90
7972;DHT22;4031;49.758;6.120;2023-05-02T16:20:29;16.90;97.70
7972;DHT22;4031;49.758;6.120;2023-05-02T16:22:56;16.80;97.30
7972;DHT22;4031;49.758;6.120;2023-05-02T16:25:22;16.70;98.40
7972;DHT22;4031;49.758;6.120;2023-05-02T16:27:48;16.50;97.70
7972;DHT22;4031;49.758;6.120;2023-05-02T16:30:14;16.40;99.10
7972;DHT22;4031;49.758;6.120;2023-05-02T16:32:41;16.30;98.90
7972;DHT22;4031;49.758;6.120;2023-05-02T16:35:07;16.30;99.90
7972;DHT22;4031;49.758;6.120;2023-05-02T16:37:35;16.20;99.60
7972;DHT22;4031;49.758;6.120;2023-05-02T16:40:01;16.10;98.70
7972;DHT22;4031;49.758;6.120;2023-05-02T16:42:29;16.00;98.60
7972;DHT22;4031;49.758;6.120;2023-05-02T16:44:55;15.90;99.70
7972;DHT22;4031;49.758;6.120;2023-05-02T16:47:22;15.90;99.90